BAW9026 LKPR-LOWW
Flight info
| Callsign | BAW9026 |
|---|---|
| Flight time | 0h 33m |
| Altitude | 17000 |
| Route | VOZ4B VOZ DCT LANUX LANUX7W |
| Aircraft | A21N/M-SDE3FGIJ1LRWXYZ/SB1G1 |
Departure
| Time | 2026-05-04 13:54 |
|---|---|
| Airport | Václav Havel Airport Prague (LKPR) |
Arrival
| Time | 2026-05-04 14:27 |
|---|---|
| Airport | Vienna International Airport (LOWW) |
| Time | Latitude | Longitude | Altitude | Speed | Heading |
|---|---|---|---|---|---|
| 2026-05-04 13:18 | 50.10561 | 14.26346 | 1183 ft | 0 kts | 34° |
| 2026-05-04 13:42 | 50.10561 | 14.26345 | 1183 ft | 0 kts | 34° |
| 2026-05-04 13:42 | 50.10542 | 14.26326 | 1183 ft | 3 kts | 34° |
| 2026-05-04 13:42 | 50.10525 | 14.26310 | 1183 ft | 4 kts | 6° |
| 2026-05-04 13:42 | 50.10503 | 14.26320 | 1183 ft | 4 kts | 313° |
| 2026-05-04 13:43 | 50.10504 | 14.26315 | 1183 ft | 4 kts | 306° |
| 2026-05-04 13:43 | 50.10520 | 14.26281 | 1183 ft | 4 kts | 303° |
| 2026-05-04 13:43 | 50.10521 | 14.26278 | 1183 ft | 0 kts | 302° |
| 2026-05-04 13:47 | 50.10522 | 14.26276 | 1183 ft | 1 kts | 302° |
| 2026-05-04 13:47 | 50.10527 | 14.26262 | 1183 ft | 3 kts | 302° |
| 2026-05-04 13:47 | 50.10536 | 14.26233 | 1183 ft | 6 kts | 283° |
| 2026-05-04 13:47 | 50.10551 | 14.26164 | 1182 ft | 5 kts | 300° |
| 2026-05-04 13:48 | 50.10576 | 14.26109 | 1182 ft | 7 kts | 304° |
| 2026-05-04 13:48 | 50.10580 | 14.26026 | 1184 ft | 7 kts | 244° |
| 2026-05-04 13:48 | 50.10523 | 14.25973 | 1189 ft | 12 kts | 182° |
| 2026-05-04 13:48 | 50.10458 | 14.26068 | 1191 ft | 10 kts | 128° |
| 2026-05-04 13:49 | 50.10408 | 14.26168 | 1193 ft | 13 kts | 128° |
| 2026-05-04 13:49 | 50.10345 | 14.26296 | 1196 ft | 16 kts | 127° |
| 2026-05-04 13:49 | 50.10270 | 14.26450 | 1199 ft | 19 kts | 127° |
| 2026-05-04 13:49 | 50.10185 | 14.26630 | 1202 ft | 22 kts | 127° |
| 2026-05-04 13:50 | 50.10113 | 14.26779 | 1204 ft | 18 kts | 127° |
| 2026-05-04 13:50 | 50.10037 | 14.26938 | 1208 ft | 19 kts | 127° |
| 2026-05-04 13:50 | 50.09952 | 14.27113 | 1211 ft | 22 kts | 127° |
| 2026-05-04 13:50 | 50.09861 | 14.27300 | 1210 ft | 21 kts | 131° |
| 2026-05-04 13:51 | 50.09767 | 14.27448 | 1211 ft | 16 kts | 135° |
| 2026-05-04 13:51 | 50.09690 | 14.27566 | 1212 ft | 10 kts | 136° |
| 2026-05-04 13:51 | 50.09637 | 14.27646 | 1213 ft | 10 kts | 141° |
| 2026-05-04 13:51 | 50.09576 | 14.27620 | 1215 ft | 12 kts | 217° |
| 2026-05-04 13:52 | 50.09428 | 14.27453 | 1224 ft | 12 kts | 221° |
| 2026-05-04 13:52 | 50.09429 | 14.27375 | 1224 ft | 9 kts | 307° |
| 2026-05-04 13:52 | 50.09485 | 14.27262 | 1220 ft | 32 kts | 308° |
| 2026-05-04 13:53 | 50.09781 | 14.26648 | 1219 ft | 107 kts | 307° |
| 2026-05-04 13:53 | 50.10346 | 14.25469 | 1218 ft | 156 kts | 308° |
| 2026-05-04 13:53 | 50.10989 | 14.24125 | 1796 ft | 155 kts | 307° |
| 2026-05-04 13:54 | 50.12334 | 14.21286 | 2809 ft | 180 kts | 307° |
| 2026-05-04 13:54 | 50.13142 | 14.19631 | 3355 ft | 203 kts | 306° |
| 2026-05-04 13:54 | 50.15136 | 14.15515 | 4339 ft | 265 kts | 306° |
| 2026-05-04 13:55 | 50.16251 | 14.13197 | 5394 ft | 269 kts | 306° |
| 2026-05-04 13:55 | 50.17707 | 14.08932 | 7132 ft | 272 kts | 278° |
| 2026-05-04 13:55 | 50.17463 | 14.05058 | 8535 ft | 272 kts | 248° |
| 2026-05-04 13:56 | 50.16853 | 14.03358 | 9234 ft | 273 kts | 232° |
| 2026-05-04 13:56 | 50.15432 | 14.01389 | 10277 ft | 277 kts | 211° |
| 2026-05-04 13:56 | 50.11484 | 14.00779 | 11638 ft | 318 kts | 163° |
| 2026-05-04 13:57 | 50.09547 | 14.02574 | 12097 ft | 345 kts | 141° |
| 2026-05-04 13:57 | 50.07835 | 14.05328 | 12807 ft | 358 kts | 136° |
| 2026-05-04 13:58 | 50.02522 | 14.13800 | 15312 ft | 370 kts | 138° |
| 2026-05-04 13:58 | 49.98811 | 14.19448 | 15956 ft | 375 kts | 139° |
| 2026-05-04 13:58 | 49.96967 | 14.22237 | 16000 ft | 375 kts | 139° |
| 2026-05-04 13:59 | 49.95072 | 14.25096 | 16007 ft | 375 kts | 139° |
| 2026-05-04 13:59 | 49.93228 | 14.27880 | 16093 ft | 375 kts | 139° |
| 2026-05-04 13:59 | 49.89452 | 14.33576 | 16949 ft | 380 kts | 139° |
| 2026-05-04 14:00 | 49.87592 | 14.36377 | 17001 ft | 369 kts | 139° |
| 2026-05-04 14:00 | 49.83908 | 14.41899 | 16987 ft | 368 kts | 139° |
| 2026-05-04 14:00 | 49.82064 | 14.44656 | 16980 ft | 369 kts | 139° |
| 2026-05-04 14:01 | 49.80211 | 14.47425 | 16979 ft | 368 kts | 139° |
| 2026-05-04 14:01 | 49.78366 | 14.50180 | 16975 ft | 368 kts | 139° |
| 2026-05-04 14:01 | 49.74656 | 14.55717 | 16975 ft | 373 kts | 139° |
| 2026-05-04 14:02 | 49.72782 | 14.58510 | 16973 ft | 373 kts | 139° |
| 2026-05-04 14:02 | 49.70931 | 14.61263 | 16973 ft | 374 kts | 139° |
| 2026-05-04 14:02 | 49.69059 | 14.64046 | 16971 ft | 374 kts | 139° |
| 2026-05-04 14:02 | 49.67186 | 14.66828 | 16972 ft | 373 kts | 139° |
| 2026-05-04 14:03 | 49.65316 | 14.69599 | 16974 ft | 373 kts | 139° |
| 2026-05-04 14:03 | 49.63437 | 14.72382 | 16971 ft | 373 kts | 139° |
| 2026-05-04 14:03 | 49.61561 | 14.75158 | 16972 ft | 373 kts | 139° |
| 2026-05-04 14:03 | 49.59682 | 14.77935 | 16973 ft | 373 kts | 139° |
| 2026-05-04 14:04 | 49.55929 | 14.83468 | 16972 ft | 373 kts | 139° |
| 2026-05-04 14:04 | 49.54052 | 14.86231 | 16971 ft | 373 kts | 139° |
| 2026-05-04 14:04 | 49.52083 | 14.88811 | 16972 ft | 371 kts | 145° |
| 2026-05-04 14:05 | 49.48000 | 14.93578 | 16969 ft | 371 kts | 146° |
| 2026-05-04 14:05 | 49.45908 | 14.96003 | 16973 ft | 371 kts | 146° |
| 2026-05-04 14:05 | 49.43849 | 14.98393 | 16973 ft | 371 kts | 146° |
| 2026-05-04 14:06 | 49.41789 | 15.00784 | 16973 ft | 371 kts | 146° |
| 2026-05-04 14:06 | 49.39738 | 15.03171 | 16971 ft | 371 kts | 146° |
| 2026-05-04 14:06 | 49.37675 | 15.05567 | 16969 ft | 371 kts | 146° |
| 2026-05-04 14:06 | 49.35643 | 15.07925 | 16966 ft | 371 kts | 146° |
| 2026-05-04 14:07 | 49.33589 | 15.10305 | 16969 ft | 371 kts | 146° |
| 2026-05-04 14:07 | 49.31500 | 15.12721 | 16973 ft | 371 kts | 146° |
| 2026-05-04 14:07 | 49.29466 | 15.15067 | 16974 ft | 371 kts | 146° |
| 2026-05-04 14:07 | 49.27400 | 15.17452 | 16973 ft | 371 kts | 146° |
| 2026-05-04 14:08 | 49.25342 | 15.19830 | 16974 ft | 371 kts | 146° |
| 2026-05-04 14:08 | 49.23275 | 15.22214 | 16973 ft | 371 kts | 146° |
| 2026-05-04 14:08 | 49.21209 | 15.24591 | 16971 ft | 371 kts | 146° |
| 2026-05-04 14:08 | 49.19146 | 15.26960 | 16967 ft | 371 kts | 146° |
| 2026-05-04 14:09 | 49.15015 | 15.31707 | 16967 ft | 371 kts | 146° |
| 2026-05-04 14:09 | 49.12943 | 15.34080 | 16964 ft | 371 kts | 146° |
| 2026-05-04 14:10 | 49.08802 | 15.38816 | 16962 ft | 372 kts | 146° |
| 2026-05-04 14:10 | 49.06759 | 15.41149 | 16963 ft | 372 kts | 146° |
| 2026-05-04 14:10 | 49.04689 | 15.43512 | 16967 ft | 371 kts | 146° |
| 2026-05-04 14:10 | 49.02622 | 15.45871 | 16968 ft | 371 kts | 146° |
| 2026-05-04 14:11 | 49.00577 | 15.48202 | 16754 ft | 362 kts | 146° |
| 2026-05-04 14:11 | 48.96619 | 15.52704 | 16276 ft | 352 kts | 146° |
| 2026-05-04 14:11 | 48.94662 | 15.54928 | 16017 ft | 351 kts | 146° |
| 2026-05-04 14:12 | 48.92706 | 15.57147 | 15741 ft | 349 kts | 146° |
| 2026-05-04 14:12 | 48.90767 | 15.59344 | 15381 ft | 348 kts | 146° |
| 2026-05-04 14:12 | 48.86948 | 15.63791 | 14649 ft | 345 kts | 144° |
| 2026-05-04 14:13 | 48.85051 | 15.66068 | 14381 ft | 342 kts | 144° |
| 2026-05-04 14:13 | 48.83184 | 15.68310 | 14156 ft | 341 kts | 144° |
| 2026-05-04 14:13 | 48.81325 | 15.70538 | 13969 ft | 340 kts | 145° |
| 2026-05-04 14:13 | 48.79472 | 15.72755 | 13791 ft | 339 kts | 145° |
| 2026-05-04 14:14 | 48.77643 | 15.74939 | 13605 ft | 338 kts | 145° |
| 2026-05-04 14:14 | 48.73960 | 15.79331 | 13216 ft | 336 kts | 145° |
| 2026-05-04 14:14 | 48.72107 | 15.81541 | 13023 ft | 334 kts | 145° |
| 2026-05-04 14:15 | 48.68479 | 15.85857 | 12642 ft | 332 kts | 144° |
| 2026-05-04 14:15 | 48.64851 | 15.90170 | 12261 ft | 331 kts | 144° |
| 2026-05-04 14:16 | 48.61242 | 15.94445 | 11935 ft | 329 kts | 144° |
| 2026-05-04 14:16 | 48.59437 | 15.96530 | 11909 ft | 322 kts | 150° |
| 2026-05-04 14:17 | 48.55441 | 15.98302 | 11833 ft | 287 kts | 174° |
| 2026-05-04 14:17 | 48.53467 | 15.98712 | 11448 ft | 286 kts | 175° |
| 2026-05-04 14:17 | 48.49577 | 15.99838 | 10631 ft | 289 kts | 160° |
| 2026-05-04 14:18 | 48.47750 | 16.01158 | 10251 ft | 290 kts | 156° |
| 2026-05-04 14:18 | 48.44191 | 16.03961 | 9412 ft | 287 kts | 155° |
| 2026-05-04 14:19 | 48.40671 | 16.06720 | 8541 ft | 282 kts | 155° |
| 2026-05-04 14:19 | 48.38975 | 16.08044 | 8248 ft | 273 kts | 155° |
| 2026-05-04 14:19 | 48.37324 | 16.09336 | 8022 ft | 262 kts | 155° |
| 2026-05-04 14:19 | 48.35727 | 16.10587 | 7702 ft | 256 kts | 155° |
| 2026-05-04 14:20 | 48.34155 | 16.11817 | 7308 ft | 254 kts | 155° |
| 2026-05-04 14:20 | 48.32601 | 16.13023 | 6986 ft | 252 kts | 155° |
| 2026-05-04 14:20 | 48.31042 | 16.14227 | 6699 ft | 251 kts | 155° |
| 2026-05-04 14:21 | 48.27955 | 16.16576 | 6219 ft | 244 kts | 155° |
| 2026-05-04 14:21 | 48.26467 | 16.17691 | 6081 ft | 234 kts | 155° |
| 2026-05-04 14:21 | 48.25035 | 16.18756 | 5966 ft | 225 kts | 155° |
| 2026-05-04 14:21 | 48.23685 | 16.19888 | 5717 ft | 222 kts | 142° |
| 2026-05-04 14:22 | 48.22646 | 16.21592 | 5403 ft | 222 kts | 127° |
| 2026-05-04 14:22 | 48.21870 | 16.23584 | 5094 ft | 222 kts | 117° |
| 2026-05-04 14:22 | 48.21238 | 16.25692 | 4802 ft | 221 kts | 119° |
| 2026-05-04 14:22 | 48.20574 | 16.27768 | 4493 ft | 219 kts | 118° |
| 2026-05-04 14:23 | 48.19253 | 16.31846 | 3844 ft | 216 kts | 118° |
| 2026-05-04 14:23 | 48.18601 | 16.33859 | 3516 ft | 213 kts | 118° |
| 2026-05-04 14:23 | 48.17960 | 16.35839 | 3200 ft | 208 kts | 118° |
| 2026-05-04 14:24 | 48.17334 | 16.37764 | 2922 ft | 204 kts | 117° |
| 2026-05-04 14:24 | 48.16728 | 16.39638 | 2720 ft | 192 kts | 118° |
| 2026-05-04 14:24 | 48.16167 | 16.41366 | 2455 ft | 179 kts | 118° |
| 2026-05-04 14:24 | 48.15635 | 16.43007 | 2172 ft | 172 kts | 120° |
| 2026-05-04 14:25 | 48.15129 | 16.44566 | 1951 ft | 162 kts | 119° |
| 2026-05-04 14:25 | 48.14281 | 16.47178 | 1525 ft | 123 kts | 121° |
| 2026-05-04 14:25 | 48.13904 | 16.48338 | 1362 ft | 124 kts | 120° |
| 2026-05-04 14:26 | 48.13541 | 16.49491 | 1179 ft | 121 kts | 123° |
| 2026-05-04 14:26 | 48.13161 | 16.50611 | 1025 ft | 121 kts | 120° |
| 2026-05-04 14:26 | 48.12796 | 16.51741 | 858 ft | 120 kts | 119° |
| 2026-05-04 14:26 | 48.12429 | 16.52879 | 720 ft | 122 kts | 121° |
| 2026-05-04 14:27 | 48.12060 | 16.54011 | 622 ft | 114 kts | 120° |
| 2026-05-04 14:27 | 48.11798 | 16.54815 | 619 ft | 60 kts | 116° |
| 2026-05-04 14:27 | 48.11642 | 16.55274 | 624 ft | 42 kts | 119° |
| 2026-05-04 14:27 | 48.11550 | 16.55593 | 621 ft | 33 kts | 112° |
| 2026-05-04 14:28 | 48.11500 | 16.55860 | 621 ft | 21 kts | 94° |
| 2026-05-04 14:28 | 48.11507 | 16.56073 | 614 ft | 15 kts | 83° |
| 2026-05-04 14:28 | 48.11565 | 16.56136 | 617 ft | 12 kts | 330° |
| 2026-05-04 14:28 | 48.11602 | 16.56068 | 614 ft | 9 kts | 300° |
| 2026-05-04 14:29 | 48.11655 | 16.55915 | 622 ft | 9 kts | 296° |
| 2026-05-04 14:29 | 48.11705 | 16.55782 | 624 ft | 8 kts | 326° |
| 2026-05-04 14:30 | 48.11752 | 16.55798 | 618 ft | 6 kts | 23° |
| 2026-05-04 14:30 | 48.11790 | 16.55846 | 621 ft | 6 kts | 67° |
| 2026-05-04 14:30 | 48.11804 | 16.55957 | 625 ft | 6 kts | 76° |
| 2026-05-04 14:31 | 48.11808 | 16.55983 | 622 ft | 0 kts | 81° |
| 2026-05-04 14:31 | 48.11808 | 16.55987 | 621 ft | 0 kts | 81° |